Time;durP1;ratioP1;P1;durP2;ratioP2;P2;SDS_P1;SDS_P2;PMS_P1;PMS_P2;Temp;Humidity;BMP_temperature;BMP_pressure;BME280_temperature;BME280_humidity;BME280_pressure;Samples;Min_cycle;Max_cycle;Signal;HPM_P1;HPM_P2
2022/05/27 00:00:44;;;;;;;;;1.00;1.00;;;;;16.91;53.52;101712.81;5016676;28;46744;-77
2022/05/27 00:03:10;;;;;;;;;1.00;1.00;;;;;16.89;53.30;101714.69;5012727;28;45454;-78
2022/05/27 00:05:36;;;;;;;;;0.00;0.00;;;;;16.90;53.42;101709.28;5014983;28;45450;-77
2022/05/27 00:08:01;;;;;;;;;1.00;1.00;;;;;16.91;53.28;101707.47;4997388;28;45507;-76
2022/05/27 00:10:27;;;;;;;;;0.00;0.00;;;;;16.92;53.72;101709.25;4996166;28;45659;-78
2022/05/27 00:12:53;;;;;;;;;2.00;1.00;;;;;16.87;53.37;101704.91;4996114;28;45420;-78
2022/05/27 00:15:19;;;;;;;;;1.00;1.00;;;;;16.86;53.73;101708.47;5002603;28;45570;-78
2022/05/27 00:17:45;;;;;;;;;1.00;1.00;;;;;16.85;53.67;101705.81;5028371;28;45562;-76
2022/05/27 00:20:11;;;;;;;;;1.00;1.00;;;;;16.84;54.27;101706.75;5034734;28;45584;-77
2022/05/27 00:22:37;;;;;;;;;1.00;0.00;;;;;16.82;54.15;101693.47;5035179;28;45531;-75
2022/05/27 00:25:03;;;;;;;;;1.00;0.00;;;;;16.84;53.92;101702.28;5035734;28;45397;-78
2022/05/27 00:27:28;;;;;;;;;2.00;0.00;;;;;16.81;54.10;101690.84;5000908;28;45366;-78
2022/05/27 00:29:54;;;;;;;;;0.75;0.00;;;;;16.81;54.19;101694.38;4996931;28;45388;-80
2022/05/27 00:32:20;;;;;;;;;0.50;0.50;;;;;16.70;54.26;101675.09;4995649;28;45467;-80
2022/05/27 00:34:47;;;;;;;;;2.00;0.25;;;;;16.78;54.90;101693.59;5016020;28;45574;-79
2022/05/27 00:37:12;;;;;;;;;0.00;0.00;;;;;16.78;54.77;101683.78;5008178;28;45419;-78
2022/05/27 00:39:38;;;;;;;;;0.00;0.00;;;;;16.72;54.88;101683.06;5036237;28;45596;-78
2022/05/27 00:42:05;;;;;;;;;1.00;0.00;;;;;16.70;54.85;101669.75;5037032;28;45414;-78
2022/05/27 00:44:30;;;;;;;;;0.00;0.00;;;;;16.65;55.73;101672.56;5037351;28;45394;-79
2022/05/27 00:47:08;;;;;;;;;0.75;0.75;;;;;16.62;55.60;101666.44;5013553;28;45472;-78
2022/05/27 00:49:43;;;;;;;;;0.00;0.00;;;;;16.60;55.51;101668.28;5015793;28;46123;-79
2022/05/27 00:52:12;;;;;;;;;0.50;0.50;;;;;16.55;55.71;101665.75;5014655;28;45368;-79
2022/05/27 00:54:39;;;;;;;;;0.00;0.00;;;;;16.52;55.53;101672.03;5015071;28;45406;-79
2022/05/27 00:57:11;;;;;;;;;0.50;0.50;;;;;16.47;56.11;101665.97;5013744;28;45585;-79
2022/05/27 01:00:00;;;;;;;;;0.75;0.75;;;;;16.42;56.35;101670.53;5015251;28;46224;-80
2022/05/27 01:02:27;;;;;;;;;1.00;1.00;;;;;16.37;56.60;101672.47;5014950;28;45488;-78
2022/05/27 01:04:53;;;;;;;;;1.50;1.50;;;;;16.26;56.77;101664.75;5016482;28;45332;-79
2022/05/27 01:07:18;;;;;;;;;1.00;1.00;;;;;16.26;56.88;101674.53;5023456;28;45503;-79
2022/05/27 01:09:48;;;;;;;;;0.75;0.75;;;;;16.21;57.23;101671.09;5026345;28;46122;-79
2022/05/27 01:12:26;;;;;;;;;1.00;1.00;;;;;16.15;57.33;101673.03;4998207;28;45383;-79
2022/05/27 01:14:57;;;;;;;;;0.25;0.25;;;;;16.12;57.34;101665.13;4999242;28;45388;-78
2022/05/27 01:17:46;;;;;;;;;2.00;1.00;;;;;16.09;57.67;101672.28;5022876;28;45582;-79
2022/05/27 01:20:24;;;;;;;;;1.00;1.00;;;;;16.06;58.03;101662.56;5013436;28;46406;-79
2022/05/27 01:23:04;;;;;;;;;1.00;1.00;;;;;16.03;58.11;101669.78;5012132;28;45579;-79
2022/05/27 01:26:20;;;;;;;;;1.00;1.00;;;;;15.97;58.41;101670.81;5011502;28;45450;-79
2022/05/27 01:29:08;;;;;;;;;0.75;0.75;;;;;15.93;58.48;101667.34;4982401;28;45493;-80
2022/05/27 01:32:09;;;;;;;;;0.25;0.25;;;;;15.92;58.40;101664.72;4992680;28;45480;-79
2022/05/27 01:34:43;;;;;;;;;1.00;1.00;;;;;15.88;58.72;101665.72;4992378;28;45588;-79
2022/05/27 01:37:32;;;;;;;;;2.00;2.00;;;;;15.84;58.80;101666.72;4992798;28;45606;-79
2022/05/27 01:40:17;;;;;;;;;1.00;1.00;;;;;15.76;59.19;101665.09;4993231;28;45568;-79
2022/05/27 01:43:15;;;;;;;;;1.00;1.00;;;;;15.69;59.21;101660.81;4995139;28;46124;-78
2022/05/27 01:45:53;;;;;;;;;1.00;1.00;;;;;15.67;59.18;101654.66;4973019;28;45493;-78
2022/05/27 01:48:32;;;;;;;;;0.75;0.75;;;;;15.65;59.40;101661.78;4978580;28;45547;-78
2022/05/27 01:51:11;;;;;;;;;0.00;0.00;;;;;15.63;59.45;101655.63;5011734;28;45392;-77
2022/05/27 01:53:39;;;;;;;;;0.00;0.00;;;;;15.60;59.22;101663.69;5004938;28;45481;-79
2022/05/27 01:56:41;;;;;;;;;1.00;0.75;;;;;15.57;59.40;101659.31;4975137;28;45513;-80
2022/05/27 01:59:33;;;;;;;;;1.50;1.50;;;;;15.52;59.65;101649.69;4917632;28;45400;-79
2022/05/27 02:02:21;;;;;;;;;1.00;1.00;;;;;15.46;59.55;101672.88;4922901;28;45572;-79
2022/05/27 02:05:06;;;;;;;;;1.25;0.00;;;;;15.43;59.71;101659.63;4949856;28;46099;-78
2022/05/27 02:07:53;;;;;;;;;0.00;0.00;;;;;15.41;59.77;101664.13;4961382;28;45494;-80
2022/05/27 02:10:37;;;;;;;;;1.00;0.00;;;;;15.35;59.38;101664.28;4959149;28;46138;-79
2022/05/27 02:13:11;;;;;;;;;1.00;1.00;;;;;15.27;59.33;101658.22;4958128;28;45586;-79
2022/05/27 02:15:41;;;;;;;;;2.25;1.00;;;;;15.28;59.74;101657.31;4964449;28;45527;-79
2022/05/27 02:18:16;;;;;;;;;0.25;0.25;;;;;15.27;59.95;101653.78;4947128;28;45548;-79
2022/05/27 02:20:49;;;;;;;;;1.00;1.00;;;;;15.26;59.69;101660.03;4958896;28;45631;-79
2022/05/27 02:23:22;;;;;;;;;1.25;1.00;;;;;15.23;60.05;101665.41;4956003;28;45536;-80
2022/05/27 02:25:50;;;;;;;;;1.25;1.25;;;;;15.23;59.92;101660.09;4956279;28;45505;-81
2022/05/27 02:28:22;;;;;;;;;0.00;0.00;;;;;15.21;60.13;101661.03;4956184;28;45479;-80
2022/05/27 02:30:54;;;;;;;;;1.50;1.50;;;;;15.22;60.35;101658.34;4956069;28;45459;-79
2022/05/27 02:36:35;;;;;;;;;0.75;0.75;;;;;15.22;60.10;101657.47;4998435;28;45925;-79
2022/05/27 02:39:01;;;;;;;;;1.00;1.00;;;;;15.20;60.10;101659.28;4999908;28;45371;-78
2022/05/27 02:42:06;;;;;;;;;0.00;0.00;;;;;15.23;59.97;101664.56;5009747;28;45395;-78
2022/05/27 02:44:39;;;;;;;;;1.25;1.25;;;;;15.20;60.55;101656.63;4994824;28;45513;-80
2022/05/27 02:47:15;;;;;;;;;0.00;0.00;;;;;15.23;60.29;101660.09;4993940;28;46196;-78
2022/05/27 02:49:47;;;;;;;;;1.00;1.00;;;;;15.26;60.53;101665.34;4995085;28;45501;-80
2022/05/27 02:52:26;;;;;;;;;1.00;0.50;;;;;15.26;60.52;101664.47;4976089;28;45510;-80
2022/05/27 02:55:04;;;;;;;;;1.50;1.00;;;;;15.28;60.68;101660.00;4987132;28;45545;-78
2022/05/27 02:57:42;;;;;;;;;2.50;2.50;;;;;15.28;60.49;101660.84;4994149;28;45539;-79
2022/05/27 03:00:16;;;;;;;;;4.00;2.50;;;;;15.27;60.81;101655.56;4994726;28;45541;-79
2022/05/27 03:02:41;;;;;;;;;0.50;0.50;;;;;15.27;60.79;101667.13;4994350;28;45540;-78
2022/05/27 03:05:08;;;;;;;;;1.00;1.00;;;;;15.24;60.98;101660.97;4981134;28;45594;-79
2022/05/27 03:07:46;;;;;;;;;0.25;0.25;;;;;15.19;60.89;101660.19;4980316;28;46585;-79
2022/05/27 03:10:22;;;;;;;;;1.00;1.00;;;;;15.22;60.83;101657.47;4975530;28;45791;-79
2022/05/27 03:13:06;;;;;;;;;1.25;0.00;;;;;15.18;60.96;101659.31;4978312;28;45650;-76
2022/05/27 03:15:42;;;;;;;;;0.00;0.00;;;;;15.21;61.20;101666.34;4992657;28;45610;-76
2022/05/27 03:18:33;;;;;;;;;1.00;1.00;;;;;15.23;61.07;101667.22;4993996;28;46414;-78
2022/05/27 03:21:27;;;;;;;;;1.75;0.25;;;;;15.26;60.84;101664.47;5003350;28;45368;-78
2022/05/27 03:24:05;;;;;;;;;5.00;1.50;;;;;15.25;60.44;101665.38;5014798;28;45580;-77
2022/05/27 03:26:48;;;;;;;;;0.75;0.75;;;;;15.23;60.20;101664.56;5015699;28;45361;-76
2022/05/27 03:29:25;;;;;;;;;3.25;1.00;;;;;15.17;60.12;101669.97;5015054;28;46243;-78
2022/05/27 03:32:10;;;;;;;;;0.00;0.00;;;;;15.17;59.96;101664.66;5004888;28;45540;-76
2022/05/27 03:34:49;;;;;;;;;1.00;1.00;;;;;15.14;59.92;101664.72;5004900;28;45482;-77
2022/05/27 03:37:26;;;;;;;;;2.50;1.00;;;;;15.10;60.91;101653.28;5016910;28;45383;-77
2022/05/27 03:40:10;;;;;;;;;0.25;0.25;;;;;15.10;60.08;101663.94;5015393;28;46055;-76
2022/05/27 03:42:38;;;;;;;;;1.00;1.00;;;;;15.05;60.33;101661.38;4999049;28;45459;-76
2022/05/27 03:45:11;;;;;;;;;2.50;1.50;;;;;15.02;60.40;101658.78;5009489;28;45642;-77
2022/05/27 03:47:38;;;;;;;;;2.00;2.00;;;;;15.00;60.11;101662.38;5016084;28;45478;-78
2022/05/27 03:50:06;;;;;;;;;0.25;0.25;;;;;15.01;60.24;101662.34;5016081;28;46198;-78
2022/05/27 03:52:38;;;;;;;;;0.25;0.25;;;;;14.91;60.52;101648.34;5014480;28;45391;-75
2022/05/27 03:55:06;;;;;;;;;0.75;0.75;;;;;14.98;60.60;101654.41;5004732;28;45429;-77
2022/05/27 03:57:31;;;;;;;;;5.00;2.00;;;;;14.98;60.71;101662.41;4994209;28;45570;-78
2022/05/27 03:59:56;;;;;;;;;0.25;0.25;;;;;15.05;60.71;101665.81;4995671;28;46025;-77
2022/05/27 04:02:22;;;;;;;;;1.00;1.00;;;;;15.08;60.89;101673.75;5008176;28;45464;-76
2022/05/27 04:04:47;;;;;;;;;0.50;0.50;;;;;15.10;60.76;101669.25;5006432;28;45364;-77
2022/05/27 04:07:12;;;;;;;;;1.00;1.00;;;;;15.07;60.63;101666.66;4996719;28;45413;-77
2022/05/27 04:09:38;;;;;;;;;1.00;1.00;;;;;15.07;60.57;101658.66;4995303;28;45512;-78
2022/05/27 04:12:04;;;;;;;;;2.00;2.00;;;;;15.08;60.61;101661.31;4995372;28;45414;-76
2022/05/27 04:14:31;;;;;;;;;1.00;1.00;;;;;15.10;60.80;101670.13;5015759;28;45606;-78
2022/05/27 04:17:27;;;;;;;;;0.25;0.00;;;;;15.11;60.69;101671.03;5014339;28;45402;-77
2022/05/27 04:19:42;;;;;;;;;2.25;1.00;;;;;15.09;60.77;101663.06;5014305;28;46025;-76
2022/05/27 04:22:08;;;;;;;;;2.25;1.00;;;;;15.12;60.74;101678.06;5014793;28;45407;-77
2022/05/27 04:24:33;;;;;;;;;0.25;0.25;;;;;15.12;61.01;101682.53;5012577;28;45491;-77
2022/05/27 04:26:59;;;;;;;;;2.25;0.00;;;;;15.09;61.36;101679.03;5014799;28;45394;-77
2022/05/27 04:29:25;;;;;;;;;1.00;1.00;;;;;15.10;61.17;101683.44;5015528;28;46208;-76
2022/05/27 04:31:50;;;;;;;;;1.00;1.00;;;;;15.07;61.46;101683.50;5015053;28;45520;-76
2022/05/27 04:34:15;;;;;;;;;2.00;1.00;;;;;14.92;61.03;101662.53;5004150;28;45436;-76
2022/05/27 04:36:41;;;;;;;;;1.25;1.25;;;;;15.02;61.37;101674.75;4995766;28;45444;-77
2022/05/27 04:39:06;;;;;;;;;2.75;2.00;;;;;15.01;61.49;101680.97;4994890;28;45518;-78
2022/05/27 04:41:32;;;;;;;;;1.25;1.25;;;;;14.97;61.68;101676.63;5001471;28;45468;-77
2022/05/27 04:43:58;;;;;;;;;3.00;1.75;;;;;14.99;61.39;101677.47;5004109;28;45534;-76
2022/05/27 04:46:24;;;;;;;;;1.25;1.25;;;;;14.97;61.22;101675.75;4994649;28;45466;-78
2022/05/27 04:48:49;;;;;;;;;2.25;2.25;;;;;15.02;61.61;101676.53;5000280;28;45805;-76
2022/05/27 04:51:15;;;;;;;;;5.25;3.00;;;;;15.03;61.52;101684.50;5015693;28;45493;-77
2022/05/27 04:53:40;;;;;;;;;2.00;2.00;;;;;15.04;61.63;101680.03;5026670;28;45350;-75
2022/05/27 04:56:09;;;;;;;;;1.00;0.50;;;;;15.04;61.60;101680.03;5024759;28;45367;-77
2022/05/27 04:58:34;;;;;;;;;2.75;2.75;;;;;15.03;61.38;101679.16;5016677;28;45445;-77
2022/05/27 05:00:59;;;;;;;;;5.50;1.75;;;;;15.05;61.68;101690.66;5014355;28;45253;-77
2022/05/27 05:03:25;;;;;;;;;3.00;3.00;;;;;15.03;61.76;101683.59;5009213;28;45321;-77
2022/05/27 05:05:50;;;;;;;;;2.00;1.00;;;;;15.01;62.01;101683.63;4995296;28;45495;-78
2022/05/27 05:08:26;;;;;;;;;4.50;3.00;;;;;15.04;62.12;101680.91;4995502;28;46177;-80
2022/05/27 05:10:51;;;;;;;;;2.00;2.00;;;;;15.03;62.07;101672.94;5002479;28;45395;-79
2022/05/27 05:13:16;;;;;;;;;7.75;4.50;;;;;15.09;62.15;101675.47;4997900;28;45402;-81
2022/05/27 05:15:42;;;;;;;;;3.25;2.25;;;;;15.09;62.14;101683.47;5016517;28;45388;-75
2022/05/27 05:18:07;;;;;;;;;4.00;4.00;;;;;15.09;61.78;101688.78;4998967;28;45764;-78
2022/05/27 05:20:33;;;;;;;;;6.00;6.00;;;;;15.09;62.28;101679.03;5014950;28;45447;-78
2022/05/27 05:22:58;;;;;;;;;5.50;5.50;;;;;15.10;62.22;101687.88;5011785;28;45420;-76
2022/05/27 05:25:25;;;;;;;;;3.00;3.00;;;;;15.09;62.63;101679.03;4994203;28;45486;-77
2022/05/27 05:27:52;;;;;;;;;6.00;3.25;;;;;15.14;62.21;101691.34;4994026;28;45458;-77
2022/05/27 05:30:20;;;;;;;;;5.00;3.00;;;;;15.16;62.65;101689.56;4992943;28;45395;-77
2022/05/27 05:32:45;;;;;;;;;5.00;3.25;;;;;15.16;61.84;101685.09;5010674;28;45421;-79
2022/05/27 05:35:12;;;;;;;;;2.00;2.00;;;;;15.14;62.38;101681.59;4995861;28;45482;-81
2022/05/27 05:37:39;;;;;;;;;6.00;6.00;;;;;15.15;62.50;101677.13;4995675;28;48252;-79
2022/05/27 05:40:05;;;;;;;;;6.00;6.00;;;;;15.14;62.58;101673.63;4994448;28;45499;-80
2022/05/27 05:42:31;;;;;;;;;5.50;5.50;;;;;15.17;62.67;101677.97;4993378;28;45546;-78
2022/05/27 05:44:59;;;;;;;;;10.00;8.00;;;;;15.13;62.72;101674.50;4994343;28;45387;-79
2022/05/27 05:47:25;;;;;;;;;13.00;10.25;;;;;15.15;62.57;101682.47;5015420;28;46250;-80
2022/05/27 05:49:50;;;;;;;;;11.00;10.00;;;;;15.17;63.13;101681.53;5017278;28;45454;-78
2022/05/27 05:52:16;;;;;;;;;9.00;7.25;;;;;15.19;62.87;101693.00;4997278;28;45387;-80
2022/05/27 05:54:41;;;;;;;;;10.00;9.00;;;;;15.20;62.53;101675.28;4997633;28;45413;-80
2022/05/27 05:57:06;;;;;;;;;15.25;11.00;;;;;15.16;63.04;101689.56;5000257;28;46262;-80
2022/05/27 05:59:36;;;;;;;;;14.00;12.00;;;;;15.19;63.04;101686.81;5018007;28;45366;-79
2022/05/27 06:02:02;;;;;;;;;11.25;11.25;;;;;15.20;62.84;101683.25;5017603;28;45497;-78
2022/05/27 06:04:28;;;;;;;;;15.75;11.75;;;;;15.21;62.72;101691.22;5001300;28;45515;-77
2022/05/27 06:06:55;;;;;;;;;14.00;10.75;;;;;15.21;63.05;101690.31;4994072;28;45661;-77
2022/05/27 06:09:25;;;;;;;;;10.75;9.00;;;;;15.23;63.14;101692.06;4996041;28;45437;-79
2022/05/27 06:11:51;;;;;;;;;10.50;10.00;;;;;15.17;63.06;101667.31;4993686;28;45424;-78
2022/05/27 06:14:16;;;;;;;;;9.75;9.75;;;;;15.29;63.04;101685.72;4996700;28;45548;-77
2022/05/27 06:16:41;;;;;;;;;6.25;6.00;;;;;15.27;62.98;101685.75;5012435;28;45521;-76
2022/05/27 06:19:07;;;;;;;;;9.75;6.50;;;;;15.24;63.46;101684.94;5013251;28;45339;-78
2022/05/27 06:21:32;;;;;;;;;3.00;3.00;;;;;15.33;63.50;101691.84;5012054;28;45515;-78
2022/05/27 06:23:58;;;;;;;;;2.00;2.00;;;;;15.28;63.80;101692.81;4999871;28;45495;-76
2022/05/27 06:26:23;;;;;;;;;2.00;2.00;;;;;15.27;63.55;101700.84;4994096;28;45825;-76
2022/05/27 06:34:25;;;;;;;;;4.00;3.00;;;;;15.28;63.83;101699.94;5002553;28;45933;-79
2022/05/27 06:37:14;;;;;;;;;2.00;2.00;;;;;15.26;63.99;101702.63;4995293;28;45434;-78
2022/05/27 06:39:41;;;;;;;;;6.00;3.00;;;;;15.29;64.26;101704.38;5009472;28;45549;-78
2022/05/27 06:42:09;;;;;;;;;2.00;2.00;;;;;15.31;64.53;101705.19;5007697;28;45550;-78
2022/05/27 06:44:35;;;;;;;;;2.75;1.50;;;;;15.31;64.19;101699.00;5009621;28;45472;-78
2022/05/27 06:47:00;;;;;;;;;5.25;2.50;;;;;15.31;64.23;101696.34;5011644;28;46084;-78
2022/05/27 06:49:26;;;;;;;;;2.50;2.00;;;;;15.30;64.36;101692.78;5015194;28;45466;-77
2022/05/27 06:51:51;;;;;;;;;5.00;5.00;;;;;15.26;64.62;101694.66;5015452;28;45466;-79
2022/05/27 06:54:18;;;;;;;;;2.00;2.00;;;;;15.38;64.52;101709.50;5014512;28;45475;-79
2022/05/27 06:56:45;;;;;;;;;6.75;5.75;;;;;15.37;64.62;101705.06;5015273;28;46254;-79
2022/05/27 06:59:11;;;;;;;;;6.00;5.00;;;;;15.43;64.24;101717.38;5013928;28;45338;-76
2022/05/27 07:01:37;;;;;;;;;5.25;5.00;;;;;15.44;64.01;101708.44;4999954;28;45626;-77
2022/05/27 07:04:04;;;;;;;;;5.25;5.25;;;;;15.44;64.08;101701.34;5018041;28;45536;-80
2022/05/27 07:06:38;;;;;;;;;9.00;5.00;;;;;15.50;63.93;101705.69;5009747;28;46178;-79
2022/05/27 07:09:05;;;;;;;;;7.00;6.25;;;;;15.55;63.74;101708.22;5022857;28;45522;-79
2022/05/27 07:11:30;;;;;;;;;9.75;6.75;;;;;15.56;63.65;101710.88;5013055;28;45855;-80
2022/05/27 07:13:56;;;;;;;;;9.50;6.00;;;;;15.60;63.78;101703.66;5008351;28;45782;-80
2022/05/27 07:16:21;;;;;;;;;9.75;6.00;;;;;15.59;63.59;101704.56;5011595;28;45760;-79
2022/05/27 07:18:46;;;;;;;;;8.00;6.25;;;;;15.59;63.50;101723.22;5008430;28;45487;-80
2022/05/27 07:21:13;;;;;;;;;13.50;8.50;;;;;15.60;63.24;101712.53;5015795;28;45372;-79
2022/05/27 07:23:38;;;;;;;;;9.50;9.50;;;;;15.60;63.47;101704.53;5018600;28;45444;-80
2022/05/27 07:26:04;;;;;;;;;19.25;15.50;;;;;15.73;63.24;101712.22;5024599;28;45518;-81
2022/05/27 07:28:29;;;;;;;;;10.50;9.50;;;;;15.81;62.97;101704.97;5027053;28;45454;-79
2022/05/27 07:30:56;;;;;;;;;11.00;8.00;;;;;15.95;62.47;101701.97;5026743;28;45367;-79
2022/05/27 07:33:22;;;;;;;;;11.75;10.50;;;;;16.06;62.06;101691.91;5031723;28;45538;-80
2022/05/27 07:35:47;;;;;;;;;14.25;10.00;;;;;16.29;62.00;101698.44;5037083;28;45598;-79
2022/05/27 07:38:13;;;;;;;;;10.00;9.75;;;;;16.51;62.08;101696.09;5017284;28;45463;-78
2022/05/27 07:40:40;;;;;;;;;11.50;10.50;;;;;16.62;60.43;101694.00;5007977;28;45558;-79
2022/05/27 07:43:09;;;;;;;;;9.00;8.50;;;;;16.76;60.21;101690.97;5027876;28;45775;-80
2022/05/27 07:45:37;;;;;;;;;4.25;4.25;;;;;16.96;60.13;101708.22;5019780;28;45607;-80
2022/05/27 07:48:03;;;;;;;;;8.25;5.75;;;;;17.11;59.55;101707.78;5034763;28;45640;-79
2022/05/27 07:50:29;;;;;;;;;10.25;8.50;;;;;17.16;59.32;101694.31;5019134;28;45572;-81
2022/05/27 07:52:55;;;;;;;;;10.50;7.00;;;;;17.35;58.92;101691.94;5022206;28;45550;-80
2022/05/27 07:55:20;;;;;;;;;7.75;5.75;;;;;17.48;58.48;101695.97;5026681;28;47805;-82
2022/05/27 07:57:47;;;;;;;;;7.50;6.00;;;;;17.53;57.76;101686.00;5016736;28;45545;-80
2022/05/27 08:00:20;;;;;;;;;7.75;5.25;;;;;17.55;57.92;101692.19;5032631;28;45538;-81
2022/05/27 08:02:45;;;;;;;;;11.00;6.75;;;;;17.56;57.67;101693.06;5028112;28;45665;-81
2022/05/27 08:05:15;;;;;;;;;2.50;2.50;;;;;17.53;58.06;101683.34;5030226;28;45521;-80
2022/05/27 08:07:40;;;;;;;;;5.00;3.00;;;;;17.56;58.24;101683.25;5018595;28;45439;-80
2022/05/27 08:10:07;;;;;;;;;4.00;4.00;;;;;17.68;57.43;101692.66;5030694;28;45437;-80
2022/05/27 08:12:32;;;;;;;;;2.50;1.50;;;;;17.41;57.28;101657.00;5029932;28;45378;-80
2022/05/27 08:14:58;;;;;;;;;5.50;4.00;;;;;17.58;57.63;101697.44;5023157;28;46030;-79
2022/05/27 08:17:23;;;;;;;;;6.00;5.00;;;;;17.58;57.88;101704.56;5018942;28;45718;-81
2022/05/27 08:19:49;;;;;;;;;2.50;2.50;;;;;17.56;57.70;101707.28;5018990;28;45592;-80
2022/05/27 08:22:14;;;;;;;;;5.00;3.00;;;;;17.58;57.89;101699.22;5024007;28;45553;-79
2022/05/27 08:24:41;;;;;;;;;4.50;3.00;;;;;17.63;58.33;101696.41;5025725;28;45449;-79
2022/05/27 08:27:07;;;;;;;;;4.50;3.50;;;;;17.68;58.01;101703.38;5017892;28;45487;-77
2022/05/27 08:29:32;;;;;;;;;2.25;2.25;;;;;17.74;58.12;101696.94;5002838;28;45444;-77
2022/05/27 08:31:57;;;;;;;;;4.00;4.00;;;;;17.74;57.61;101695.16;5013475;28;45452;-78
2022/05/27 08:39:51;;;;;;;;;8.50;7.00;;;;;17.70;58.24;101692.63;5008913;28;45415;-81
2022/05/27 08:42:35;;;;;;;;;6.25;5.00;;;;;17.69;58.20;101698.91;5011938;28;45479;-76
2022/05/27 08:45:06;;;;;;;;;2.00;2.00;;;;;17.69;58.90;101693.56;5011420;28;46280;-77
2022/05/27 08:47:35;;;;;;;;;3.00;3.00;;;;;17.69;58.85;101686.41;5014660;28;45407;-77
2022/05/27 08:50:09;;;;;;;;;5.25;5.25;;;;;17.66;58.62;101697.19;5014002;28;45485;-76
2022/05/27 08:52:42;;;;;;;;;3.50;2.00;;;;;17.56;58.96;101704.63;5017023;28;45575;-78
2022/05/27 09:01:04;;;;;;;;;3.50;2.00;;;;;17.54;59.64;101705.63;5009988;28;45474;-80
2022/05/27 09:03:34;;;;;;;;;4.50;2.25;;;;;17.55;59.71;101702.00;5029003;28;45424;-81
2022/05/27 09:06:04;;;;;;;;;4.00;2.00;;;;;17.57;59.91;101705.50;5031772;28;45366;-81
2022/05/27 09:08:31;;;;;;;;;4.00;1.75;;;;;17.57;60.31;101700.16;5016745;28;45598;-80
2022/05/27 09:11:28;;;;;;;;;13.25;10.00;;;;;17.62;59.77;101700.03;5026917;28;45433;-80
2022/05/27 09:14:20;;;;;;;;;3.00;3.00;;;;;17.68;60.30;101710.53;5021073;28;45415;-80
2022/05/27 09:17:04;;;;;;;;;2.00;2.00;;;;;17.67;60.02;101711.44;5011720;28;47352;-80
2022/05/27 09:19:48;;;;;;;;;2.00;2.00;;;;;17.69;60.50;101709.59;5013887;28;45511;-79
2022/05/27 09:22:21;;;;;;;;;2.50;2.50;;;;;17.71;60.13;101705.94;5027781;28;45437;-80
2022/05/27 09:25:04;;;;;;;;;4.50;2.50;;;;;17.75;60.30;101709.41;5028368;28;45446;-81
2022/05/27 09:28:00;;;;;;;;;1.50;1.50;;;;;17.76;60.19;101713.81;5026376;28;45453;-80
2022/05/27 09:30:27;;;;;;;;;4.00;4.00;;;;;17.76;60.38;101705.78;5033124;28;45395;-80
2022/05/27 09:32:56;;;;;;;;;1.25;1.25;;;;;17.82;59.93;101700.25;5019643;28;45477;-80
2022/05/27 09:35:51;;;;;;;;;3.00;2.25;;;;;17.93;60.28;101711.50;5031689;28;45407;-80
2022/05/27 09:38:27;;;;;;;;;5.00;2.75;;;;;18.07;59.43;101691.47;5017234;28;46396;-80
2022/05/27 09:40:55;;;;;;;;;4.75;4.00;;;;;18.17;59.38;101697.34;5014818;28;45457;-79
2022/05/27 09:43:32;;;;;;;;;5.00;5.00;;;;;18.25;58.99;101693.50;5015480;28;45453;-81
2022/05/27 09:46:06;;;;;;;;;3.75;3.00;;;;;18.24;59.13;101693.56;5000610;28;45467;-80
2022/05/27 09:48:31;;;;;;;;;5.00;5.00;;;;;18.26;59.09;101695.22;5016740;28;46331;-80
2022/05/27 09:51:01;;;;;;;;;3.00;3.00;;;;;18.32;59.50;101704.00;5022010;28;45396;-79
2022/05/27 09:53:31;;;;;;;;;3.75;3.75;;;;;18.35;60.04;101699.38;5024333;28;45386;-81
2022/05/27 09:56:04;;;;;;;;;2.00;2.00;;;;;18.37;59.80;101704.69;5024793;28;45521;-80
2022/05/27 09:58:36;;;;;;;;;4.00;4.00;;;;;18.44;60.14;101704.41;5023372;28;46526;-82
2022/05/27 10:01:17;;;;;;;;;3.25;3.25;;;;;18.57;60.22;101709.34;5008463;28;45639;-81
2022/05/27 10:03:43;;;;;;;;;3.00;2.25;;;;;18.66;60.35;101692.97;5002611;28;45512;-79
2022/05/27 10:06:12;;;;;;;;;3.50;3.50;;;;;18.83;59.75;101709.28;5024972;28;45308;-80
2022/05/27 10:08:49;;;;;;;;;3.00;3.00;;;;;18.98;59.71;101704.34;5021248;28;46581;-82
2022/05/27 10:11:19;;;;;;;;;2.75;2.75;;;;;19.17;58.77;101699.13;5034097;28;45430;-81
2022/05/27 10:13:49;;;;;;;;;2.00;2.00;;;;;19.31;58.72;101702.16;5011179;28;45393;-78
2022/05/27 10:16:23;;;;;;;;;2.25;2.25;;;;;19.38;57.94;101696.56;5006971;28;45715;-80
2022/05/27 10:19:06;;;;;;;;;3.00;3.00;;;;;19.52;57.20;101691.53;5016248;28;47276;-81
2022/05/27 10:21:31;;;;;;;;;3.25;2.00;;;;;19.71;56.56;101681.81;5024631;28;45479;-80
2022/05/27 10:24:16;;;;;;;;;3.00;2.50;;;;;20.06;55.75;101682.16;5019695;28;45503;-80
2022/05/27 10:26:42;;;;;;;;;3.50;3.25;;;;;20.41;54.23;101668.16;5034945;28;45382;-80
2022/05/27 10:29:12;;;;;;;;;5.00;5.00;;;;;20.80;53.68;101661.09;5037464;28;45422;-80
2022/05/27 10:31:52;;;;;;;;;3.25;3.25;;;;;21.33;52.62;101659.50;5021337;28;45505;-80
2022/05/27 10:34:45;;;;;;;;;3.25;2.50;;;;;21.92;51.80;101666.47;5031724;28;45372;-81
2022/05/27 10:37:13;;;;;;;;;1.00;1.00;;;;;22.32;50.09;101663.63;5022893;28;45510;-81
2022/05/27 10:39:44;;;;;;;;;2.25;2.25;;;;;22.59;50.06;101663.09;5022122;28;46239;-81
2022/05/27 10:42:23;;;;;;;;;1.00;1.00;;;;;22.68;48.69;101663.47;5019787;28;45342;-82
2022/05/27 10:45:06;;;;;;;;;2.00;2.00;;;;;23.02;48.55;101664.31;5036603;28;45534;-81
2022/05/27 10:47:34;;;;;;;;;4.75;2.75;;;;;23.19;47.66;101660.69;5021228;28;45573;-81
2022/05/27 10:50:25;;;;;;;;;4.00;3.00;;;;;23.19;46.77;101655.31;5021644;28;46384;-80
2022/05/27 10:53:23;;;;;;;;;2.00;2.00;;;;;23.27;46.82;101667.50;5013353;28;45555;-80
2022/05/27 10:56:00;;;;;;;;;2.25;1.00;;;;;23.16;46.63;101662.72;5022783;28;45496;-81
2022/05/27 11:04:25;;;;;;;;;0.00;0.00;;;;;22.94;47.06;101668.38;5013676;28;45446;-80
2022/05/27 11:07:47;;;;;;;;;2.75;2.75;;;;;22.99;47.46;101658.22;5013366;28;45428;-81
2022/05/27 11:11:01;;;;;;;;;2.00;2.00;;;;;23.10;46.48;101666.63;4988961;28;45542;-81
2022/05/27 11:16:33;;;;;;;;;1.50;1.50;;;;;22.89;46.98;101663.25;4986786;28;45721;-81
2022/05/27 11:19:10;;;;;;;;;1.50;1.00;;;;;22.69;47.49;101667.03;4988943;28;45559;-80
2022/05/27 11:22:04;;;;;;;;;3.50;2.75;;;;;22.67;47.50;101668.94;4983506;28;45621;-80
2022/05/27 11:25:10;;;;;;;;;2.00;2.00;;;;;22.66;47.75;101670.75;4972887;28;45496;-81
2022/05/27 11:27:54;;;;;;;;;1.00;1.00;;;;;22.48;47.71;101664.50;4975355;28;45529;-80
2022/05/27 11:30:50;;;;;;;;;1.50;1.50;;;;;22.31;47.88;101656.47;4985163;28;45585;-82
2022/05/27 11:33:39;;;;;;;;;2.25;2.25;;;;;22.19;48.46;101666.03;4988707;28;45447;-81
2022/05/27 11:36:28;;;;;;;;;2.00;2.00;;;;;22.29;48.42;101663.72;4977453;28;45646;-82
2022/05/27 11:39:30;;;;;;;;;2.00;2.00;;;;;22.12;49.18;101652.03;4980745;28;45554;-82
2022/05/27 11:42:10;;;;;;;;;1.50;1.50;;;;;22.01;49.40;101659.75;5021236;28;45411;-81
2022/05/27 11:45:11;;;;;;;;;1.25;1.25;;;;;22.03;49.43;101651.59;5002655;28;45470;-80
2022/05/27 11:47:51;;;;;;;;;2.75;2.50;;;;;21.98;49.36;101654.53;5022715;28;46709;-77
2022/05/27 11:50:48;;;;;;;;;6.25;3.00;;;;;21.95;49.32;101639.41;5016843;28;45446;-78
2022/05/27 11:53:42;;;;;;;;;1.00;1.00;;;;;22.04;49.65;101648.84;5022000;28;45385;-78
2022/05/27 11:56:16;;;;;;;;;1.25;1.25;;;;;22.07;49.15;101648.69;5014882;28;45514;-78
2022/05/27 11:58:58;;;;;;;;;2.50;1.25;;;;;22.02;49.20;101641.81;5021375;28;46117;-78
2022/05/27 12:01:37;;;;;;;;;5.75;2.00;;;;;22.00;49.20;101649.94;5015292;28;45413;-78
2022/05/27 12:04:12;;;;;;;;;4.00;3.75;;;;;22.07;49.49;101646.00;5016156;28;45569;-78
2022/05/27 12:07:06;;;;;;;;;1.00;1.00;;;;;22.13;49.07;101644.81;5016191;28;45399;-78
2022/05/27 12:09:40;;;;;;;;;3.25;2.50;;;;;22.09;48.97;101636.03;5013974;28;45431;-77
2022/05/27 12:12:10;;;;;;;;;0.25;0.00;;;;;22.14;49.14;101638.47;5027742;28;45442;-80
2022/05/27 12:14:44;;;;;;;;;1.25;1.25;;;;;22.16;49.30;101637.44;5018045;28;45602;-79
2022/05/27 12:17:18;;;;;;;;;2.00;1.00;;;;;22.31;49.12;101643.00;5031910;28;45502;-81
2022/05/27 12:19:57;;;;;;;;;1.00;1.00;;;;;22.38;48.76;101641.75;5030343;28;46493;-81